sensor_id;sensor_type;location;lat;lon;timestamp;temperature;humidity
33931;DHT22;20215;53.130;6.408;2022-12-07T00:00:00;11.90;90.40
33931;DHT22;20215;53.130;6.408;2022-12-07T00:02:25;11.90;90.40
33931;DHT22;20215;53.130;6.408;2022-12-07T00:04:51;11.80;90.40
33931;DHT22;20215;53.130;6.408;2022-12-07T00:07:17;11.80;90.40
33931;DHT22;20215;53.130;6.408;2022-12-07T00:09:42;11.80;90.40
33931;DHT22;20215;53.130;6.408;2022-12-07T00:12:08;11.80;90.30
33931;DHT22;20215;53.130;6.408;2022-12-07T00:14:33;11.80;90.30
33931;DHT22;20215;53.130;6.408;2022-12-07T00:16:59;11.80;90.30
33931;DHT22;20215;53.130;6.408;2022-12-07T00:19:24;11.80;90.20
33931;DHT22;20215;53.130;6.408;2022-12-07T00:21:50;11.80;90.20
33931;DHT22;20215;53.130;6.408;2022-12-07T00:24:16;11.80;90.20
33931;DHT22;20215;53.130;6.408;2022-12-07T00:26:43;11.80;90.10
33931;DHT22;20215;53.130;6.408;2022-12-07T00:29:20;11.70;90.10
33931;DHT22;20215;53.130;6.408;2022-12-07T00:31:47;11.70;90.10
33931;DHT22;20215;53.130;6.408;2022-12-07T00:34:15;11.70;90.10
33931;DHT22;20215;53.130;6.408;2022-12-07T00:36:41;11.70;90.00
33931;DHT22;20215;53.130;6.408;2022-12-07T00:39:06;11.70;90.00
33931;DHT22;20215;53.130;6.408;2022-12-07T00:41:32;11.70;90.00
33931;DHT22;20215;53.130;6.408;2022-12-07T00:43:58;11.70;90.00
33931;DHT22;20215;53.130;6.408;2022-12-07T00:46:24;11.70;89.90
33931;DHT22;20215;53.130;6.408;2022-12-07T00:48:50;11.70;90.00
33931;DHT22;20215;53.130;6.408;2022-12-07T00:51:18;11.70;90.00
33931;DHT22;20215;53.130;6.408;2022-12-07T00:53:44;11.60;89.90
33931;DHT22;20215;53.130;6.408;2022-12-07T00:56:16;11.60;89.90
33931;DHT22;20215;53.130;6.408;2022-12-07T00:58:41;11.60;89.90
33931;DHT22;20215;53.130;6.408;2022-12-07T01:01:08;11.60;89.90
33931;DHT22;20215;53.130;6.408;2022-12-07T01:03:34;11.60;89.80
33931;DHT22;20215;53.130;6.408;2022-12-07T01:06:00;11.60;89.80
33931;DHT22;20215;53.130;6.408;2022-12-07T01:08:26;11.60;89.70
33931;DHT22;20215;53.130;6.408;2022-12-07T01:11:07;11.60;89.60
33931;DHT22;20215;53.130;6.408;2022-12-07T01:13:34;11.60;89.50
33931;DHT22;20215;53.130;6.408;2022-12-07T01:16:01;11.60;89.60
33931;DHT22;20215;53.130;6.408;2022-12-07T01:18:28;11.60;89.60
33931;DHT22;20215;53.130;6.408;2022-12-07T01:21:01;11.60;89.60
33931;DHT22;20215;53.130;6.408;2022-12-07T01:23:27;11.60;89.60
33931;DHT22;20215;53.130;6.408;2022-12-07T01:25:57;11.60;89.60
33931;DHT22;20215;53.130;6.408;2022-12-07T01:28:24;11.60;89.60
33931;DHT22;20215;53.130;6.408;2022-12-07T01:30:57;11.60;89.50
33931;DHT22;20215;53.130;6.408;2022-12-07T01:33:23;11.60;89.40
33931;DHT22;20215;53.130;6.408;2022-12-07T01:35:49;11.50;89.50
33931;DHT22;20215;53.130;6.408;2022-12-07T01:38:14;11.50;89.40
33931;DHT22;20215;53.130;6.408;2022-12-07T01:40:40;11.50;89.40
33931;DHT22;20215;53.130;6.408;2022-12-07T01:43:17;11.50;89.40
33931;DHT22;20215;53.130;6.408;2022-12-07T01:45:43;11.50;89.40
33931;DHT22;20215;53.130;6.408;2022-12-07T01:48:11;11.50;89.50
33931;DHT22;20215;53.130;6.408;2022-12-07T01:50:40;11.50;89.50
33931;DHT22;20215;53.130;6.408;2022-12-07T01:53:09;11.50;89.50
33931;DHT22;20215;53.130;6.408;2022-12-07T01:55:38;11.50;89.50
33931;DHT22;20215;53.130;6.408;2022-12-07T01:58:04;11.50;89.50
33931;DHT22;20215;53.130;6.408;2022-12-07T02:00:30;11.50;89.40
33931;DHT22;20215;53.130;6.408;2022-12-07T02:05:35;11.50;89.30
33931;DHT22;20215;53.130;6.408;2022-12-07T02:08:03;11.50;89.30
33931;DHT22;20215;53.130;6.408;2022-12-07T02:10:31;11.40;89.20
33931;DHT22;20215;53.130;6.408;2022-12-07T02:13:23;11.40;89.20
33931;DHT22;20215;53.130;6.408;2022-12-07T02:26:55;11.40;88.90
33931;DHT22;20215;53.130;6.408;2022-12-07T02:32:15;11.40;89.10
33931;DHT22;20215;53.130;6.408;2022-12-07T02:34:54;11.40;89.20
33931;DHT22;20215;53.130;6.408;2022-12-07T02:37:32;11.40;89.20
33931;DHT22;20215;53.130;6.408;2022-12-07T02:40:23;11.40;89.10
33931;DHT22;20215;53.130;6.408;2022-12-07T02:42:51;11.40;89.20
33931;DHT22;20215;53.130;6.408;2022-12-07T02:45:20;11.40;89.20
33931;DHT22;20215;53.130;6.408;2022-12-07T02:47:48;11.30;89.10
33931;DHT22;20215;53.130;6.408;2022-12-07T02:50:19;11.30;89.40
33931;DHT22;20215;53.130;6.408;2022-12-07T02:52:45;11.30;89.40
33931;DHT22;20215;53.130;6.408;2022-12-07T02:55:11;11.30;89.40
33931;DHT22;20215;53.130;6.408;2022-12-07T03:00:12;11.30;89.30
33931;DHT22;20215;53.130;6.408;2022-12-07T03:02:59;11.40;89.30
33931;DHT22;20215;53.130;6.408;2022-12-07T03:08:18;11.30;89.10
33931;DHT22;20215;53.130;6.408;2022-12-07T03:18:23;11.30;88.90
33931;DHT22;20215;53.130;6.408;2022-12-07T03:20:52;11.30;89.00
33931;DHT22;20215;53.130;6.408;2022-12-07T03:23:19;11.40;89.10
33931;DHT22;20215;53.130;6.408;2022-12-07T03:25:49;11.30;89.00
33931;DHT22;20215;53.130;6.408;2022-12-07T03:28:18;11.30;89.00
33931;DHT22;20215;53.130;6.408;2022-12-07T03:30:49;11.30;88.90
33931;DHT22;20215;53.130;6.408;2022-12-07T03:33:37;11.30;88.80
33931;DHT22;20215;53.130;6.408;2022-12-07T03:36:08;11.40;88.80
33931;DHT22;20215;53.130;6.408;2022-12-07T03:38:37;11.30;88.90
33931;DHT22;20215;53.130;6.408;2022-12-07T03:41:11;11.30;88.70
33931;DHT22;20215;53.130;6.408;2022-12-07T03:43:37;11.30;89.00
33931;DHT22;20215;53.130;6.408;2022-12-07T03:46:25;11.30;89.00
33931;DHT22;20215;53.130;6.408;2022-12-07T03:49:16;11.30;88.90
33931;DHT22;20215;53.130;6.408;2022-12-07T03:54:28;11.30;88.90
33931;DHT22;20215;53.130;6.408;2022-12-07T03:56:56;11.30;88.90
33931;DHT22;20215;53.130;6.408;2022-12-07T03:59:22;11.30;88.80
33931;DHT22;20215;53.130;6.408;2022-12-07T04:01:56;11.30;88.70
33931;DHT22;20215;53.130;6.408;2022-12-07T04:04:24;11.30;88.50
33931;DHT22;20215;53.130;6.408;2022-12-07T04:06:50;11.30;88.50
33931;DHT22;20215;53.130;6.408;2022-12-07T04:09:16;11.20;88.50
33931;DHT22;20215;53.130;6.408;2022-12-07T04:11:42;11.30;88.60
33931;DHT22;20215;53.130;6.408;2022-12-07T04:14:08;11.20;88.50
33931;DHT22;20215;53.130;6.408;2022-12-07T04:16:48;11.20;88.50
33931;DHT22;20215;53.130;6.408;2022-12-07T04:19:14;11.20;88.20
33931;DHT22;20215;53.130;6.408;2022-12-07T04:21:40;11.20;88.30
33931;DHT22;20215;53.130;6.408;2022-12-07T04:24:06;11.20;88.50
33931;DHT22;20215;53.130;6.408;2022-12-07T04:26:32;11.20;88.40
33931;DHT22;20215;53.130;6.408;2022-12-07T04:28:58;11.20;88.50
33931;DHT22;20215;53.130;6.408;2022-12-07T04:31:23;11.20;88.40
33931;DHT22;20215;53.130;6.408;2022-12-07T04:33:49;11.20;88.30
33931;DHT22;20215;53.130;6.408;2022-12-07T04:36:15;11.20;88.40
33931;DHT22;20215;53.130;6.408;2022-12-07T04:38:40;11.20;88.50
33931;DHT22;20215;53.130;6.408;2022-12-07T04:41:07;11.20;88.50
33931;DHT22;20215;53.130;6.408;2022-12-07T04:43:34;11.20;88.40
33931;DHT22;20215;53.130;6.408;2022-12-07T04:45:59;11.20;88.50
33931;DHT22;20215;53.130;6.408;2022-12-07T04:48:25;11.20;88.40
33931;DHT22;20215;53.130;6.408;2022-12-07T04:50:51;11.20;88.30
33931;DHT22;20215;53.130;6.408;2022-12-07T04:53:16;11.20;88.30
33931;DHT22;20215;53.130;6.408;2022-12-07T04:55:42;11.20;88.20
33931;DHT22;20215;53.130;6.408;2022-12-07T04:58:08;11.20;88.20
33931;DHT22;20215;53.130;6.408;2022-12-07T05:00:33;11.20;88.10
33931;DHT22;20215;53.130;6.408;2022-12-07T05:02:59;11.10;88.00
33931;DHT22;20215;53.130;6.408;2022-12-07T05:05:24;11.20;88.10
33931;DHT22;20215;53.130;6.408;2022-12-07T05:07:50;11.10;88.00
33931;DHT22;20215;53.130;6.408;2022-12-07T05:10:16;11.20;88.10
33931;DHT22;20215;53.130;6.408;2022-12-07T05:12:41;11.10;88.00
33931;DHT22;20215;53.130;6.408;2022-12-07T05:15:07;11.10;87.90
33931;DHT22;20215;53.130;6.408;2022-12-07T05:17:33;11.10;87.90
33931;DHT22;20215;53.130;6.408;2022-12-07T05:19:59;11.10;88.00
33931;DHT22;20215;53.130;6.408;2022-12-07T05:22:24;11.10;88.00
33931;DHT22;20215;53.130;6.408;2022-12-07T05:24:54;11.10;88.00
33931;DHT22;20215;53.130;6.408;2022-12-07T05:27:19;11.10;88.00
33931;DHT22;20215;53.130;6.408;2022-12-07T05:29:45;11.10;88.00
33931;DHT22;20215;53.130;6.408;2022-12-07T05:32:11;11.10;88.10
33931;DHT22;20215;53.130;6.408;2022-12-07T05:34:36;11.00;88.00
33931;DHT22;20215;53.130;6.408;2022-12-07T05:37:02;11.00;88.00
33931;DHT22;20215;53.130;6.408;2022-12-07T05:39:27;11.00;88.00
33931;DHT22;20215;53.130;6.408;2022-12-07T05:41:53;11.00;88.00
33931;DHT22;20215;53.130;6.408;2022-12-07T05:44:44;11.00;87.90
33931;DHT22;20215;53.130;6.408;2022-12-07T05:47:11;11.00;88.00
33931;DHT22;20215;53.130;6.408;2022-12-07T05:49:37;11.00;88.00
33931;DHT22;20215;53.130;6.408;2022-12-07T05:52:03;11.00;88.50
33931;DHT22;20215;53.130;6.408;2022-12-07T05:54:29;11.00;88.00
33931;DHT22;20215;53.130;6.408;2022-12-07T05:56:55;11.00;88.00
33931;DHT22;20215;53.130;6.408;2022-12-07T05:59:20;11.00;88.00
33931;DHT22;20215;53.130;6.408;2022-12-07T06:01:50;11.00;87.90
33931;DHT22;20215;53.130;6.408;2022-12-07T06:04:17;11.00;87.80
33931;DHT22;20215;53.130;6.408;2022-12-07T06:06:43;11.00;87.80
33931;DHT22;20215;53.130;6.408;2022-12-07T06:09:08;11.00;87.80
33931;DHT22;20215;53.130;6.408;2022-12-07T06:11:34;10.90;87.70
33931;DHT22;20215;53.130;6.408;2022-12-07T06:14:18;11.00;88.30
33931;DHT22;20215;53.130;6.408;2022-12-07T06:16:44;11.00;87.80
33931;DHT22;20215;53.130;6.408;2022-12-07T06:19:09;10.90;87.80
33931;DHT22;20215;53.130;6.408;2022-12-07T06:21:35;10.90;87.80
33931;DHT22;20215;53.130;6.408;2022-12-07T06:24:01;10.90;87.80
33931;DHT22;20215;53.130;6.408;2022-12-07T06:26:27;10.90;87.80
33931;DHT22;20215;53.130;6.408;2022-12-07T06:28:52;10.90;87.90
33931;DHT22;20215;53.130;6.408;2022-12-07T06:31:18;10.90;87.90
33931;DHT22;20215;53.130;6.408;2022-12-07T06:33:44;10.90;88.00
33931;DHT22;20215;53.130;6.408;2022-12-07T06:36:09;10.90;88.00
33931;DHT22;20215;53.130;6.408;2022-12-07T06:38:35;10.90;88.00
33931;DHT22;20215;53.130;6.408;2022-12-07T06:41:01;10.90;87.90
33931;DHT22;20215;53.130;6.408;2022-12-07T06:43:26;10.90;87.90
33931;DHT22;20215;53.130;6.408;2022-12-07T06:45:52;10.90;87.90
33931;DHT22;20215;53.130;6.408;2022-12-07T06:48:18;10.90;88.40
33931;DHT22;20215;53.130;6.408;2022-12-07T06:50:47;10.90;87.80
33931;DHT22;20215;53.130;6.408;2022-12-07T06:53:13;10.90;87.70
33931;DHT22;20215;53.130;6.408;2022-12-07T06:55:39;10.90;87.60
33931;DHT22;20215;53.130;6.408;2022-12-07T06:58:05;10.90;87.60
33931;DHT22;20215;53.130;6.408;2022-12-07T07:00:30;10.90;87.50
33931;DHT22;20215;53.130;6.408;2022-12-07T07:02:56;10.90;87.50
33931;DHT22;20215;53.130;6.408;2022-12-07T07:05:22;11.00;87.50
33931;DHT22;20215;53.130;6.408;2022-12-07T07:07:49;10.90;87.50
33931;DHT22;20215;53.130;6.408;2022-12-07T07:10:14;10.90;87.40
33931;DHT22;20215;53.130;6.408;2022-12-07T07:12:40;10.90;87.50
33931;DHT22;20215;53.130;6.408;2022-12-07T07:15:06;10.90;87.40
33931;DHT22;20215;53.130;6.408;2022-12-07T07:17:31;10.80;87.40
33931;DHT22;20215;53.130;6.408;2022-12-07T07:19:57;10.80;87.50
33931;DHT22;20215;53.130;6.408;2022-12-07T07:22:23;10.90;87.60
33931;DHT22;20215;53.130;6.408;2022-12-07T07:24:48;10.80;87.60
33931;DHT22;20215;53.130;6.408;2022-12-07T07:27:14;10.90;87.70
33931;DHT22;20215;53.130;6.408;2022-12-07T07:29:39;10.80;87.60
33931;DHT22;20215;53.130;6.408;2022-12-07T07:32:05;10.80;87.60
33931;DHT22;20215;53.130;6.408;2022-12-07T07:34:31;10.90;87.60
33931;DHT22;20215;53.130;6.408;2022-12-07T07:36:56;10.80;87.50
33931;DHT22;20215;53.130;6.408;2022-12-07T07:39:22;10.80;87.50
33931;DHT22;20215;53.130;6.408;2022-12-07T07:41:47;10.80;87.40
33931;DHT22;20215;53.130;6.408;2022-12-07T07:44:13;10.90;87.80
33931;DHT22;20215;53.130;6.408;2022-12-07T07:46:39;10.80;87.30
33931;DHT22;20215;53.130;6.408;2022-12-07T07:49:05;10.80;87.30
33931;DHT22;20215;53.130;6.408;2022-12-07T07:51:30;10.80;87.30
33931;DHT22;20215;53.130;6.408;2022-12-07T07:53:56;10.80;87.40
33931;DHT22;20215;53.130;6.408;2022-12-07T07:56:21;10.80;87.40
33931;DHT22;20215;53.130;6.408;2022-12-07T07:58:47;10.80;87.40
33931;DHT22;20215;53.130;6.408;2022-12-07T08:01:16;10.80;87.30
33931;DHT22;20215;53.130;6.408;2022-12-07T08:03:42;10.80;87.40
33931;DHT22;20215;53.130;6.408;2022-12-07T08:06:07;10.80;87.30
33931;DHT22;20215;53.130;6.408;2022-12-07T08:08:33;10.80;87.30
33931;DHT22;20215;53.130;6.408;2022-12-07T08:10:59;10.80;87.30
33931;DHT22;20215;53.130;6.408;2022-12-07T08:13:27;10.80;87.30
33931;DHT22;20215;53.130;6.408;2022-12-07T08:15:53;10.80;87.40
33931;DHT22;20215;53.130;6.408;2022-12-07T08:18:18;10.80;87.50
33931;DHT22;20215;53.130;6.408;2022-12-07T08:20:44;10.80;87.50
33931;DHT22;20215;53.130;6.408;2022-12-07T08:23:10;10.80;87.50
33931;DHT22;20215;53.130;6.408;2022-12-07T08:25:36;10.80;87.50
33931;DHT22;20215;53.130;6.408;2022-12-07T08:28:02;10.80;87.40
33931;DHT22;20215;53.130;6.408;2022-12-07T08:30:29;10.80;87.40
33931;DHT22;20215;53.130;6.408;2022-12-07T08:32:55;10.80;87.30
33931;DHT22;20215;53.130;6.408;2022-12-07T08:35:21;10.80;87.30
33931;DHT22;20215;53.130;6.408;2022-12-07T08:37:46;10.80;87.30
33931;DHT22;20215;53.130;6.408;2022-12-07T08:40:13;10.80;87.30
33931;DHT22;20215;53.130;6.408;2022-12-07T08:42:44;10.80;87.30
33931;DHT22;20215;53.130;6.408;2022-12-07T08:45:14;10.80;87.20
33931;DHT22;20215;53.130;6.408;2022-12-07T08:48:00;10.90;87.20
33931;DHT22;20215;53.130;6.408;2022-12-07T08:50:28;10.80;87.00
33931;DHT22;20215;53.130;6.408;2022-12-07T08:52:56;10.80;87.20
33931;DHT22;20215;53.130;6.408;2022-12-07T08:55:22;10.80;87.10
33931;DHT22;20215;53.130;6.408;2022-12-07T08:57:48;10.80;87.10
33931;DHT22;20215;53.130;6.408;2022-12-07T09:00:15;10.90;87.20
33931;DHT22;20215;53.130;6.408;2022-12-07T09:02:43;10.80;87.10
33931;DHT22;20215;53.130;6.408;2022-12-07T09:05:09;10.80;87.10
33931;DHT22;20215;53.130;6.408;2022-12-07T09:07:35;10.90;87.20
33931;DHT22;20215;53.130;6.408;2022-12-07T09:10:02;10.80;87.30
33931;DHT22;20215;53.130;6.408;2022-12-07T09:12:28;10.90;87.40
33931;DHT22;20215;53.130;6.408;2022-12-07T09:14:53;11.00;87.60
33931;DHT22;20215;53.130;6.408;2022-12-07T09:17:19;10.90;87.40
33931;DHT22;20215;53.130;6.408;2022-12-07T09:19:44;11.00;87.50
33931;DHT22;20215;53.130;6.408;2022-12-07T09:22:10;11.00;87.50
33931;DHT22;20215;53.130;6.408;2022-12-07T09:24:36;11.00;87.50
33931;DHT22;20215;53.130;6.408;2022-12-07T09:27:01;11.00;87.40
33931;DHT22;20215;53.130;6.408;2022-12-07T09:29:27;11.00;87.60
33931;DHT22;20215;53.130;6.408;2022-12-07T09:31:53;11.10;87.50
33931;DHT22;20215;53.130;6.408;2022-12-07T09:34:18;11.10;87.50
33931;DHT22;20215;53.130;6.408;2022-12-07T09:36:44;11.10;87.40
33931;DHT22;20215;53.130;6.408;2022-12-07T09:39:10;11.00;87.40
33931;DHT22;20215;53.130;6.408;2022-12-07T09:41:41;11.00;87.20
33931;DHT22;20215;53.130;6.408;2022-12-07T09:44:13;11.00;87.20
33931;DHT22;20215;53.130;6.408;2022-12-07T09:46:42;11.00;87.00
33931;DHT22;20215;53.130;6.408;2022-12-07T09:49:18;11.00;87.40
33931;DHT22;20215;53.130;6.408;2022-12-07T09:51:44;11.10;87.40
33931;DHT22;20215;53.130;6.408;2022-12-07T09:54:13;11.10;87.40
33931;DHT22;20215;53.130;6.408;2022-12-07T09:56:39;11.00;87.20
33931;DHT22;20215;53.130;6.408;2022-12-07T09:59:05;11.00;87.30
33931;DHT22;20215;53.130;6.408;2022-12-07T10:01:32;11.00;87.20
33931;DHT22;20215;53.130;6.408;2022-12-07T10:06:32;11.10;87.10
33931;DHT22;20215;53.130;6.408;2022-12-07T10:08:57;11.10;87.10
33931;DHT22;20215;53.130;6.408;2022-12-07T10:11:23;11.10;87.20
33931;DHT22;20215;53.130;6.408;2022-12-07T10:13:51;11.10;87.20
33931;DHT22;20215;53.130;6.408;2022-12-07T10:18:51;11.10;87.20
33931;DHT22;20215;53.130;6.408;2022-12-07T10:21:19;11.10;87.10
33931;DHT22;20215;53.130;6.408;2022-12-07T10:26:34;11.20;87.10
33931;DHT22;20215;53.130;6.408;2022-12-07T10:29:20;11.20;87.10
33931;DHT22;20215;53.130;6.408;2022-12-07T10:31:54;11.20;87.10
33931;DHT22;20215;53.130;6.408;2022-12-07T10:34:27;11.20;87.20
33931;DHT22;20215;53.130;6.408;2022-12-07T10:37:16;11.20;87.20
33931;DHT22;20215;53.130;6.408;2022-12-07T10:39:46;11.20;87.10
33931;DHT22;20215;53.130;6.408;2022-12-07T10:44:48;11.20;87.10
33931;DHT22;20215;53.130;6.408;2022-12-07T10:50:00;11.30;87.10
33931;DHT22;20215;53.130;6.408;2022-12-07T10:58:44;11.30;87.20
33931;DHT22;20215;53.130;6.408;2022-12-07T11:04:21;11.30;87.20
33931;DHT22;20215;53.130;6.408;2022-12-07T11:07:20;11.30;87.20
33931;DHT22;20215;53.130;6.408;2022-12-07T11:10:12;11.40;87.30
33931;DHT22;20215;53.130;6.408;2022-12-07T11:13:01;11.40;87.80
33931;DHT22;20215;53.130;6.408;2022-12-07T11:21:45;11.40;87.20
33931;DHT22;20215;53.130;6.408;2022-12-07T11:24:20;11.40;87.30
33931;DHT22;20215;53.130;6.408;2022-12-07T11:30:13;11.40;87.20
33931;DHT22;20215;53.130;6.408;2022-12-07T11:35:42;11.40;87.30
33931;DHT22;20215;53.130;6.408;2022-12-07T11:38:23;11.50;87.30
33931;DHT22;20215;53.130;6.408;2022-12-07T11:40:53;11.50;87.30
33931;DHT22;20215;53.130;6.408;2022-12-07T11:43:28;11.60;87.40
33931;DHT22;20215;53.130;6.408;2022-12-07T11:46:02;11.50;87.30
33931;DHT22;20215;53.130;6.408;2022-12-07T11:48:34;11.60;87.30
33931;DHT22;20215;53.130;6.408;2022-12-07T11:51:00;11.60;87.30
33931;DHT22;20215;53.130;6.408;2022-12-07T11:53:41;11.60;87.20
33931;DHT22;20215;53.130;6.408;2022-12-07T11:58:47;11.60;87.40
33931;DHT22;20215;53.130;6.408;2022-12-07T12:03:47;11.60;87.50
33931;DHT22;20215;53.130;6.408;2022-12-07T12:06:13;11.70;87.40
33931;DHT22;20215;53.130;6.408;2022-12-07T12:08:46;11.70;87.40
33931;DHT22;20215;53.130;6.408;2022-12-07T12:11:23;11.70;87.30
33931;DHT22;20215;53.130;6.408;2022-12-07T12:22:17;11.80;87.20
33931;DHT22;20215;53.130;6.408;2022-12-07T12:24:45;11.80;87.20
33931;DHT22;20215;53.130;6.408;2022-12-07T12:27:25;11.80;87.20
33931;DHT22;20215;53.130;6.408;2022-12-07T12:29:57;11.80;87.10
33931;DHT22;20215;53.130;6.408;2022-12-07T12:32:41;11.80;87.10
33931;DHT22;20215;53.130;6.408;2022-12-07T12:37:53;11.80;87.00
33931;DHT22;20215;53.130;6.408;2022-12-07T12:40:37;11.80;87.20
33931;DHT22;20215;53.130;6.408;2022-12-07T12:43:46;11.80;87.20
33931;DHT22;20215;53.130;6.408;2022-12-07T12:49:14;11.70;87.20
33931;DHT22;20215;53.130;6.408;2022-12-07T12:51:41;11.70;87.30
33931;DHT22;20215;53.130;6.408;2022-12-07T12:54:22;11.70;87.30
33931;DHT22;20215;53.130;6.408;2022-12-07T13:02:20;11.70;87.50
33931;DHT22;20215;53.130;6.408;2022-12-07T13:05:01;11.70;87.60
33931;DHT22;20215;53.130;6.408;2022-12-07T13:15:48;11.70;87.60
33931;DHT22;20215;53.130;6.408;2022-12-07T13:28:47;11.70;87.90
33931;DHT22;20215;53.130;6.408;2022-12-07T13:31:14;11.70;87.90
33931;DHT22;20215;53.130;6.408;2022-12-07T13:33:43;11.80;88.00
33931;DHT22;20215;53.130;6.408;2022-12-07T13:36:23;11.70;87.90
33931;DHT22;20215;53.130;6.408;2022-12-07T13:38:59;11.80;88.00
33931;DHT22;20215;53.130;6.408;2022-12-07T13:41:29;11.80;88.00
33931;DHT22;20215;53.130;6.408;2022-12-07T13:44:13;11.80;88.00
33931;DHT22;20215;53.130;6.408;2022-12-07T13:49:21;11.80;88.10
33931;DHT22;20215;53.130;6.408;2022-12-07T13:51:47;11.80;88.10
33931;DHT22;20215;53.130;6.408;2022-12-07T13:54:14;11.80;88.20
33931;DHT22;20215;53.130;6.408;2022-12-07T13:56:40;11.80;88.20
33931;DHT22;20215;53.130;6.408;2022-12-07T13:59:17;11.80;88.20
33931;DHT22;20215;53.130;6.408;2022-12-07T14:01:45;11.80;88.20
33931;DHT22;20215;53.130;6.408;2022-12-07T14:04:32;11.80;88.20
33931;DHT22;20215;53.130;6.408;2022-12-07T14:06:59;11.80;87.80
33931;DHT22;20215;53.130;6.408;2022-12-07T14:09:27;11.80;88.10
33931;DHT22;20215;53.130;6.408;2022-12-07T14:11:55;11.80;88.20
33931;DHT22;20215;53.130;6.408;2022-12-07T14:14:26;11.80;88.20
33931;DHT22;20215;53.130;6.408;2022-12-07T14:22:25;11.80;88.20
33931;DHT22;20215;53.130;6.408;2022-12-07T14:27:33;11.80;88.20
33931;DHT22;20215;53.130;6.408;2022-12-07T14:30:01;11.80;88.10
33931;DHT22;20215;53.130;6.408;2022-12-07T14:32:28;11.80;88.30
33931;DHT22;20215;53.130;6.408;2022-12-07T14:35:03;11.80;88.30
33931;DHT22;20215;53.130;6.408;2022-12-07T14:37:29;11.70;88.30
33931;DHT22;20215;53.130;6.408;2022-12-07T14:39:56;11.70;88.30
33931;DHT22;20215;53.130;6.408;2022-12-07T14:42:26;11.80;88.50
33931;DHT22;20215;53.130;6.408;2022-12-07T14:44:52;11.80;88.50
33931;DHT22;20215;53.130;6.408;2022-12-07T14:47:18;11.80;88.50
33931;DHT22;20215;53.130;6.408;2022-12-07T14:49:43;11.80;88.50
33931;DHT22;20215;53.130;6.408;2022-12-07T14:52:18;11.80;88.40
33931;DHT22;20215;53.130;6.408;2022-12-07T14:54:45;11.80;88.40
33931;DHT22;20215;53.130;6.408;2022-12-07T14:57:10;11.80;88.50
33931;DHT22;20215;53.130;6.408;2022-12-07T14:59:36;11.80;88.60
33931;DHT22;20215;53.130;6.408;2022-12-07T15:02:02;11.80;88.60
33931;DHT22;20215;53.130;6.408;2022-12-07T15:04:28;11.80;88.50
33931;DHT22;20215;53.130;6.408;2022-12-07T15:07:01;11.80;88.60
33931;DHT22;20215;53.130;6.408;2022-12-07T15:09:28;11.80;88.40
33931;DHT22;20215;53.130;6.408;2022-12-07T15:11:53;11.80;88.50
33931;DHT22;20215;53.130;6.408;2022-12-07T15:14:19;11.80;88.70
33931;DHT22;20215;53.130;6.408;2022-12-07T15:16:45;11.80;88.60
33931;DHT22;20215;53.130;6.408;2022-12-07T15:19:16;11.80;88.70
33931;DHT22;20215;53.130;6.408;2022-12-07T15:21:42;11.80;88.70
33931;DHT22;20215;53.130;6.408;2022-12-07T15:24:10;11.80;88.70
33931;DHT22;20215;53.130;6.408;2022-12-07T15:26:36;11.80;88.80
33931;DHT22;20215;53.130;6.408;2022-12-07T15:29:02;11.80;88.80
33931;DHT22;20215;53.130;6.408;2022-12-07T15:31:27;11.80;88.80
33931;DHT22;20215;53.130;6.408;2022-12-07T15:33:53;11.70;88.70
33931;DHT22;20215;53.130;6.408;2022-12-07T15:36:23;11.80;88.80
33931;DHT22;20215;53.130;6.408;2022-12-07T15:38:50;11.80;88.80
33931;DHT22;20215;53.130;6.408;2022-12-07T15:41:17;11.80;88.80
33931;DHT22;20215;53.130;6.408;2022-12-07T15:43:42;11.80;88.90
33931;DHT22;20215;53.130;6.408;2022-12-07T15:46:38;11.80;88.90
33931;DHT22;20215;53.130;6.408;2022-12-07T15:49:07;11.80;88.80
33931;DHT22;20215;53.130;6.408;2022-12-07T15:51:34;11.80;89.00
33931;DHT22;20215;53.130;6.408;2022-12-07T15:54:00;11.80;89.00
33931;DHT22;20215;53.130;6.408;2022-12-07T15:56:25;11.80;88.90
33931;DHT22;20215;53.130;6.408;2022-12-07T15:58:51;11.80;89.40
33931;DHT22;20215;53.130;6.408;2022-12-07T16:01:18;11.80;88.90
33931;DHT22;20215;53.130;6.408;2022-12-07T16:03:45;11.80;88.90
33931;DHT22;20215;53.130;6.408;2022-12-07T16:06:11;11.80;88.90
33931;DHT22;20215;53.130;6.408;2022-12-07T16:08:41;11.80;88.80
33931;DHT22;20215;53.130;6.408;2022-12-07T16:11:07;11.80;88.90
33931;DHT22;20215;53.130;6.408;2022-12-07T16:13:33;11.80;88.90
33931;DHT22;20215;53.130;6.408;2022-12-07T16:16:03;11.80;88.90
33931;DHT22;20215;53.130;6.408;2022-12-07T16:18:29;11.80;88.90
33931;DHT22;20215;53.130;6.408;2022-12-07T16:20:54;11.80;88.90
33931;DHT22;20215;53.130;6.408;2022-12-07T16:23:20;11.70;88.80
33931;DHT22;20215;53.130;6.408;2022-12-07T16:25:46;11.80;88.90
33931;DHT22;20215;53.130;6.408;2022-12-07T16:28:11;11.80;88.90
33931;DHT22;20215;53.130;6.408;2022-12-07T16:30:37;11.80;88.90
33931;DHT22;20215;53.130;6.408;2022-12-07T16:33:02;11.80;88.90
33931;DHT22;20215;53.130;6.408;2022-12-07T16:35:28;11.80;88.90
33931;DHT22;20215;53.130;6.408;2022-12-07T16:37:54;11.80;88.90
33931;DHT22;20215;53.130;6.408;2022-12-07T16:40:19;11.80;88.90
33931;DHT22;20215;53.130;6.408;2022-12-07T16:42:45;11.80;88.80
33931;DHT22;20215;53.130;6.408;2022-12-07T16:45:10;11.80;88.90
33931;DHT22;20215;53.130;6.408;2022-12-07T16:47:39;11.80;88.80
33931;DHT22;20215;53.130;6.408;2022-12-07T16:50:06;11.80;89.10
33931;DHT22;20215;53.130;6.408;2022-12-07T16:52:33;11.80;88.70
33931;DHT22;20215;53.130;6.408;2022-12-07T16:54:59;11.80;88.80
33931;DHT22;20215;53.130;6.408;2022-12-07T16:57:25;11.80;88.50
33931;DHT22;20215;53.130;6.408;2022-12-07T16:59:51;11.80;88.60
33931;DHT22;20215;53.130;6.408;2022-12-07T17:02:17;11.80;88.60
33931;DHT22;20215;53.130;6.408;2022-12-07T17:04:43;11.80;88.70
33931;DHT22;20215;53.130;6.408;2022-12-07T17:07:09;11.80;88.70
33931;DHT22;20215;53.130;6.408;2022-12-07T17:09:34;11.80;88.80
33931;DHT22;20215;53.130;6.408;2022-12-07T17:12:00;11.80;88.80
33931;DHT22;20215;53.130;6.408;2022-12-07T17:14:26;11.80;88.60
33931;DHT22;20215;53.130;6.408;2022-12-07T17:17:10;11.70;88.60
33931;DHT22;20215;53.130;6.408;2022-12-07T17:19:36;11.70;88.70
33931;DHT22;20215;53.130;6.408;2022-12-07T17:22:01;11.70;88.70
33931;DHT22;20215;53.130;6.408;2022-12-07T17:24:27;11.70;88.70
33931;DHT22;20215;53.130;6.408;2022-12-07T17:26:53;11.70;88.70
33931;DHT22;20215;53.130;6.408;2022-12-07T17:29:19;11.80;88.80
33931;DHT22;20215;53.130;6.408;2022-12-07T17:31:46;11.80;88.80
33931;DHT22;20215;53.130;6.408;2022-12-07T17:34:13;11.80;88.80
33931;DHT22;20215;53.130;6.408;2022-12-07T17:36:39;11.80;88.80
33931;DHT22;20215;53.130;6.408;2022-12-07T17:39:09;11.80;88.90